createdAt,value
2022-10-22T00:00:02.417Z,1007.18
2022-10-22T00:01:02.140Z,1007.19
2022-10-22T00:02:02.404Z,1007.18
2022-10-22T00:03:02.179Z,1007.16
2022-10-22T00:04:22.565Z,1007.15
2022-10-22T00:05:02.465Z,1007.14
2022-10-22T00:06:02.255Z,1007.14
2022-10-22T00:07:01.998Z,1007.14
2022-10-22T00:08:02.242Z,1007.13
2022-10-22T00:09:02.047Z,1007.18
2022-10-22T00:10:02.227Z,1007.14
2022-10-22T00:11:01.966Z,1007.20
2022-10-22T00:12:02.220Z,1007.17
2022-10-22T00:13:01.960Z,1007.21
2022-10-22T00:14:22.219Z,1007.21
2022-10-22T00:15:01.949Z,1007.23
2022-10-22T00:16:02.195Z,1007.21
2022-10-22T00:17:02.430Z,1007.22
2022-10-22T00:18:02.497Z,1007.25
2022-10-22T00:19:01.977Z,1007.25
2022-10-22T00:20:02.199Z,1007.27
2022-10-22T00:21:01.947Z,1007.24
2022-10-22T00:22:02.198Z,1007.26
2022-10-22T00:23:01.947Z,1007.26
2022-10-22T00:24:22.469Z,1007.26
2022-10-22T00:25:01.952Z,1007.23
2022-10-22T00:26:02.220Z,1007.19
2022-10-22T00:27:01.942Z,1007.23
2022-10-22T00:28:02.181Z,1007.21
2022-10-22T00:29:01.921Z,1007.16
2022-10-22T00:30:02.169Z,1007.14
2022-10-22T00:31:01.903Z,1007.20
2022-10-22T00:32:02.154Z,1007.21
2022-10-22T00:33:01.915Z,1007.17
2022-10-22T00:34:22.155Z,1007.16
2022-10-22T00:35:01.901Z,1007.20
2022-10-22T00:36:02.133Z,1007.14
2022-10-22T00:37:02.784Z,1007.16
2022-10-22T00:38:03.600Z,1007.17
2022-10-22T00:39:01.906Z,1007.14
2022-10-22T00:40:02.149Z,1007.18
2022-10-22T00:42:01.654Z,1007.18
2022-10-22T00:43:01.889Z,1007.17
2022-10-22T00:44:23.604Z,1007.18
2022-10-22T00:45:01.905Z,1007.22
2022-10-22T00:46:01.651Z,1007.20
2022-10-22T00:47:01.887Z,1007.21
2022-10-22T00:48:02.329Z,1007.26
2022-10-22T00:49:01.909Z,1007.21
2022-10-22T00:50:01.645Z,1007.22
2022-10-22T00:51:01.894Z,1007.28
2022-10-22T00:52:01.628Z,1007.26
2022-10-22T00:53:01.860Z,1007.26
2022-10-22T00:54:21.619Z,1007.28
2022-10-22T00:55:01.965Z,1007.24
2022-10-22T00:56:01.746Z,1007.28
2022-10-22T00:57:02.454Z,1007.23
2022-10-22T00:58:01.798Z,1007.23
2022-10-22T00:59:02.537Z,1007.23
2022-10-22T01:00:11.004Z,1007.19
2022-10-22T01:01:02.005Z,1007.18
2022-10-22T01:02:01.516Z,1007.19
2022-10-22T01:03:01.762Z,1007.14
2022-10-22T01:04:21.563Z,1007.12
2022-10-22T01:05:01.760Z,1007.17
2022-10-22T01:06:01.510Z,1007.15
2022-10-22T01:07:01.755Z,1007.16
2022-10-22T01:08:01.641Z,1007.20
2022-10-22T01:09:01.791Z,1007.18
2022-10-22T01:10:01.489Z,1007.23
2022-10-22T01:11:01.732Z,1007.23
2022-10-22T01:12:01.497Z,1007.22
2022-10-22T01:13:01.723Z,1007.20
2022-10-22T01:14:21.485Z,1007.25
2022-10-22T01:15:01.705Z,1007.22
2022-10-22T01:16:01.451Z,1007.27
2022-10-22T01:17:01.713Z,1007.24
2022-10-22T01:18:01.462Z,1007.26
2022-10-22T01:19:03.145Z,1007.26
2022-10-22T01:20:01.913Z,1007.27
2022-10-22T01:21:01.706Z,1007.31
2022-10-22T01:22:01.445Z,1007.32
2022-10-22T01:23:01.685Z,1007.30
2022-10-22T01:24:22.315Z,1007.26
2022-10-22T01:25:01.231Z,1007.21
2022-10-22T01:26:01.501Z,1007.23
2022-10-22T01:27:01.245Z,1007.25
2022-10-22T01:28:01.497Z,1007.24
2022-10-22T01:29:01.226Z,1007.25
2022-10-22T01:30:01.479Z,1007.21
2022-10-22T01:31:01.239Z,1007.23
2022-10-22T01:32:01.473Z,1007.22
2022-10-22T01:33:01.217Z,1007.23
2022-10-22T01:34:21.859Z,1007.19
2022-10-22T01:35:01.232Z,1007.22
2022-10-22T01:36:01.467Z,1007.18
2022-10-22T01:37:01.227Z,1007.11
2022-10-22T01:38:01.483Z,1007.18
2022-10-22T01:39:01.306Z,1007.16
2022-10-22T01:40:02.919Z,1007.14
2022-10-22T01:41:01.233Z,1007.14
2022-10-22T01:42:01.478Z,1007.12
2022-10-22T01:43:01.231Z,1007.13
2022-10-22T01:44:21.555Z,1007.13
2022-10-22T01:45:01.222Z,1007.16
2022-10-22T01:46:01.486Z,1007.16
2022-10-22T01:47:01.221Z,1007.15
2022-10-22T01:48:01.448Z,1007.15
2022-10-22T01:49:01.204Z,1007.18
2022-10-22T01:50:01.444Z,1007.15
2022-10-22T01:51:01.198Z,1007.15
2022-10-22T01:52:01.422Z,1007.13
2022-10-22T01:53:01.171Z,1007.12
2022-10-22T01:54:21.440Z,1007.14
2022-10-22T01:55:00.383Z,1007.13
2022-10-22T01:56:01.131Z,1007.12
2022-10-22T01:57:01.374Z,1007.15
2022-10-22T01:58:01.115Z,1007.16
2022-10-22T01:59:02.407Z,1007.11
2022-10-22T02:00:02.117Z,1007.13
2022-10-22T02:01:00.969Z,1007.16
2022-10-22T02:02:01.162Z,1007.16
2022-10-22T02:03:00.888Z,1007.16
2022-10-22T02:04:21.135Z,1007.11
2022-10-22T02:05:00.294Z,1007.13
2022-10-22T02:06:01.035Z,1007.12
2022-10-22T02:07:00.776Z,1007.13
2022-10-22T02:08:01.074Z,1007.14
2022-10-22T02:09:01.388Z,1007.16
2022-10-22T02:10:01.122Z,1007.14
2022-10-22T02:11:00.903Z,1007.16
2022-10-22T02:12:01.210Z,1007.14
2022-10-22T02:13:00.952Z,1007.12
2022-10-22T02:14:21.216Z,1007.15
2022-10-22T02:15:00.983Z,1007.12
2022-10-22T02:16:00.754Z,1007.17
2022-10-22T02:17:01.054Z,1007.18
2022-10-22T02:18:02.254Z,1007.17
2022-10-22T02:19:01.123Z,1007.21
2022-10-22T02:20:02.323Z,1007.15
2022-10-22T02:21:02.805Z,1007.13
2022-10-22T02:22:00.965Z,1007.14
2022-10-22T02:23:00.775Z,1007.13
2022-10-22T02:24:21.035Z,1007.17
2022-10-22T02:25:00.787Z,1007.19
2022-10-22T02:26:01.026Z,1007.19
2022-10-22T02:27:00.784Z,1007.17
2022-10-22T02:28:01.056Z,1007.16
2022-10-22T02:29:00.929Z,1007.16
2022-10-22T02:30:00.704Z,1007.14
2022-10-22T02:31:00.887Z,1007.18
2022-10-22T02:32:00.667Z,1007.16
2022-10-22T02:33:01.196Z,1007.22
2022-10-22T02:34:20.702Z,1007.19
2022-10-22T02:35:00.940Z,1007.21
2022-10-22T02:36:00.788Z,1007.22
2022-10-22T02:37:00.524Z,1007.21
2022-10-22T02:38:00.772Z,1007.21
2022-10-22T02:39:00.595Z,1007.24
2022-10-22T02:40:00.940Z,1007.19
2022-10-22T02:41:00.847Z,1007.21
2022-10-22T02:42:01.198Z,1007.23
2022-10-22T02:43:00.649Z,1007.23
2022-10-22T02:44:20.893Z,1007.25
2022-10-22T02:45:01.599Z,1007.25
2022-10-22T02:46:00.390Z,1007.23
2022-10-22T02:47:00.634Z,1007.25
2022-10-22T02:48:01.827Z,1007.22
2022-10-22T02:49:00.634Z,1007.25
2022-10-22T02:50:00.386Z,1007.27
2022-10-22T02:51:01.416Z,1007.23
2022-10-22T02:52:00.376Z,1007.25
2022-10-22T02:53:02.104Z,1007.20
2022-10-22T02:54:20.434Z,1007.25
2022-10-22T02:55:01.366Z,1007.27
2022-10-22T02:56:01.935Z,1007.28
2022-10-22T02:57:02.259Z,1007.28
2022-10-22T02:58:02.009Z,1007.28
2022-10-22T02:59:01.792Z,1007.29
2022-10-22T03:00:02.093Z,1007.33
2022-10-22T03:01:01.405Z,1007.33
2022-10-22T03:02:02.205Z,1007.30
2022-10-22T03:03:00.626Z,1007.32
2022-10-22T03:04:20.360Z,1007.34
2022-10-22T03:05:01.173Z,1007.33
2022-10-22T03:06:00.880Z,1007.34
2022-10-22T03:07:01.761Z,1007.36
2022-10-22T03:08:02.049Z,1007.37
2022-10-22T03:09:01.405Z,1007.36
2022-10-22T03:10:01.631Z,1007.33
2022-10-22T03:11:01.903Z,1007.34
2022-10-22T03:12:00.878Z,1007.39
2022-10-22T03:13:01.956Z,1007.41
2022-10-22T03:14:20.275Z,1007.39
2022-10-22T03:15:01.978Z,1007.44
2022-10-22T03:16:01.761Z,1007.41
2022-10-22T03:17:00.887Z,1007.42
2022-10-22T03:18:01.863Z,1007.44
2022-10-22T03:19:01.643Z,1007.49
2022-10-22T03:20:01.930Z,1007.45
2022-10-22T03:21:00.980Z,1007.50
2022-10-22T03:22:01.533Z,1007.51
2022-10-22T03:23:00.883Z,1007.49
2022-10-22T03:24:20.141Z,1007.51
2022-10-22T03:25:01.855Z,1007.47
2022-10-22T03:26:01.647Z,1007.49
2022-10-22T03:27:01.916Z,1007.52
2022-10-22T03:28:01.712Z,1007.52
2022-10-22T03:29:00.910Z,1007.56
2022-10-22T03:30:01.763Z,1007.54
2022-10-22T03:31:00.778Z,1007.55
2022-10-22T03:32:00.405Z,1007.52
2022-10-22T03:33:01.591Z,1007.58
2022-10-22T03:34:20.407Z,1007.63
2022-10-22T03:35:59.955Z,1007.56
2022-10-22T03:37:01.683Z,1007.60
2022-10-22T03:38:01.475Z,1007.61
2022-10-22T03:39:01.756Z,1007.62
2022-10-22T03:40:01.544Z,1007.64
2022-10-22T03:41:01.314Z,1007.62
2022-10-22T03:42:01.118Z,1007.62
2022-10-22T03:43:00.630Z,1007.69
2022-10-22T03:44:20.207Z,1007.63
2022-10-22T03:45:00.907Z,1007.61
2022-10-22T03:46:00.932Z,1007.64
2022-10-22T03:47:02.750Z,1007.65
2022-10-22T03:48:00.771Z,1007.61
2022-10-22T03:49:01.556Z,1007.65
2022-10-22T03:50:01.382Z,1007.69
2022-10-22T03:51:00.426Z,1007.68
2022-10-22T03:52:00.408Z,1007.73
2022-10-22T03:53:01.251Z,1007.70
2022-10-22T03:54:20.065Z,1007.75
2022-10-22T03:55:01.258Z,1007.74
2022-10-22T03:56:01.034Z,1007.77
2022-10-22T03:57:01.298Z,1007.76
2022-10-22T03:58:00.159Z,1007.76
2022-10-22T03:59:01.356Z,1007.76
2022-10-22T04:00:01.157Z,1007.74
2022-10-22T04:01:01.510Z,1007.70
2022-10-22T04:02:01.218Z,1007.75
2022-10-22T04:03:01.514Z,1007.79
2022-10-22T04:04:19.842Z,1007.82
2022-10-22T04:05:01.636Z,1007.79
2022-10-22T04:06:01.381Z,1007.85
2022-10-22T04:07:01.174Z,1007.80
2022-10-22T04:08:01.446Z,1007.85
2022-10-22T04:09:01.287Z,1007.83
2022-10-22T04:10:00.435Z,1007.85
2022-10-22T04:11:00.551Z,1007.84
2022-10-22T04:12:01.093Z,1007.83
2022-10-22T04:13:01.359Z,1007.86
2022-10-22T04:14:19.696Z,1007.85
2022-10-22T04:15:01.394Z,1007.83
2022-10-22T04:16:00.417Z,1007.85
2022-10-22T04:17:00.487Z,1007.88
2022-10-22T04:18:01.266Z,1007.86
2022-10-22T04:19:01.055Z,1007.90
2022-10-22T04:20:01.362Z,1007.90
2022-10-22T04:21:01.170Z,1007.92
2022-10-22T04:22:00.452Z,1007.92
2022-10-22T04:23:01.233Z,1007.87
2022-10-22T04:24:19.579Z,1007.85
2022-10-22T04:25:01.278Z,1007.89
2022-10-22T04:26:00.589Z,1007.87
2022-10-22T04:27:00.368Z,1007.83
2022-10-22T04:28:01.163Z,1007.86
2022-10-22T04:29:00.950Z,1007.88
2022-10-22T04:29:59.821Z,1007.91
2022-10-22T04:31:01.042Z,1007.92
2022-10-22T04:32:00.829Z,1007.88
2022-10-22T04:33:00.439Z,1007.90
2022-10-22T04:34:19.419Z,1007.88
2022-10-22T04:35:01.134Z,1007.88
2022-10-22T04:36:00.905Z,1007.90
2022-10-22T04:37:01.230Z,1007.92
2022-10-22T04:37:59.970Z,1007.88
2022-10-22T04:39:00.777Z,1007.91
2022-10-22T04:40:01.086Z,1007.92
2022-10-22T04:40:59.474Z,1007.96
2022-10-22T04:42:01.140Z,1007.95
2022-10-22T04:43:00.931Z,1007.94
2022-10-22T04:44:19.760Z,1007.96
2022-10-22T04:45:00.474Z,1007.91
2022-10-22T04:45:59.983Z,1007.99
2022-10-22T04:47:01.080Z,1007.97
2022-10-22T04:48:00.852Z,1007.97
2022-10-22T04:49:00.648Z,1007.97
2022-10-22T04:49:59.949Z,1007.98
2022-10-22T04:51:00.698Z,1007.98
2022-10-22T04:52:00.995Z,1007.96
2022-10-22T04:53:00.770Z,1007.95
2022-10-22T04:54:19.585Z,1007.98
2022-10-22T04:54:59.958Z,1007.97
2022-10-22T04:56:00.575Z,1007.97
2022-10-22T04:57:00.849Z,1007.99
2022-10-22T04:58:00.646Z,1008.00
2022-10-22T04:59:00.426Z,1008.02
2022-10-22T05:00:00.685Z,1008.03
2022-10-22T05:01:00.004Z,1007.99
2022-10-22T05:02:00.737Z,1008.06
2022-10-22T05:03:00.601Z,1008.06
2022-10-22T05:04:19.406Z,1008.05
2022-10-22T05:05:00.628Z,1008.06
2022-10-22T05:05:59.983Z,1008.08
2022-10-22T05:06:59.916Z,1008.12
2022-10-22T05:08:00.526Z,1008.11
2022-10-22T05:09:00.833Z,1008.12
2022-10-22T05:10:00.607Z,1008.08
2022-10-22T05:11:00.386Z,1008.13
2022-10-22T05:11:59.962Z,1008.16
2022-10-22T05:13:00.460Z,1008.12
2022-10-22T05:14:19.289Z,1008.07
2022-10-22T05:15:00.498Z,1008.09
2022-10-22T05:16:00.295Z,1008.08
2022-10-22T05:16:59.798Z,1008.10
2022-10-22T05:17:59.870Z,1008.08
2022-10-22T05:19:00.664Z,1008.05
2022-10-22T05:20:00.447Z,1008.06
2022-10-22T05:20:59.326Z,1008.11
2022-10-22T05:22:00.483Z,1008.08
2022-10-22T05:22:59.482Z,1008.13
2022-10-22T05:24:20.621Z,1008.11
2022-10-22T05:25:00.367Z,1008.14
2022-10-22T05:26:00.630Z,1008.11
2022-10-22T05:26:59.007Z,1008.13
2022-10-22T05:28:00.300Z,1008.11
2022-10-22T05:28:59.985Z,1008.10
2022-10-22T05:29:59.492Z,1008.13
2022-10-22T05:31:00.534Z,1008.14
2022-10-22T05:31:59.547Z,1008.16
2022-10-22T05:33:00.592Z,1008.10
2022-10-22T05:34:18.915Z,1008.14
2022-10-22T05:35:00.120Z,1008.11
2022-10-22T05:35:59.475Z,1008.16
2022-10-22T05:37:00.172Z,1008.19
2022-10-22T05:37:59.081Z,1008.16
2022-10-22T05:39:00.299Z,1008.17
2022-10-22T05:40:12.410Z,1008.16
2022-10-22T05:41:00.516Z,1008.23
2022-10-22T05:41:58.744Z,1008.21
2022-10-22T05:43:00.406Z,1008.25
2022-10-22T05:44:18.736Z,1008.27
2022-10-22T05:45:00.456Z,1008.30
2022-10-22T05:46:00.239Z,1008.26
2022-10-22T05:46:59.500Z,1008.29
2022-10-22T05:48:00.301Z,1008.32
2022-10-22T05:49:00.125Z,1008.27
2022-10-22T05:50:00.427Z,1008.33
2022-10-22T05:51:00.211Z,1008.36
2022-10-22T05:51:59.492Z,1008.36
2022-10-22T05:52:59.515Z,1008.39
2022-10-22T05:54:18.659Z,1008.40
2022-10-22T05:55:02.405Z,1008.41
2022-10-22T05:55:59.694Z,1008.40
2022-10-22T05:56:59.274Z,1008.40
2022-10-22T05:57:59.837Z,1008.40
2022-10-22T05:58:59.621Z,1008.40
2022-10-22T06:00:00.428Z,1008.39
2022-10-22T06:01:00.222Z,1008.42
2022-10-22T06:02:00.136Z,1008.44
2022-10-22T06:02:59.831Z,1008.40
2022-10-22T06:04:18.662Z,1008.44
2022-10-22T06:04:59.428Z,1008.49
2022-10-22T06:06:00.240Z,1008.53
2022-10-22T06:06:59.240Z,1008.53
2022-10-22T06:07:59.770Z,1008.55
2022-10-22T06:09:00.117Z,1008.62
2022-10-22T06:09:59.063Z,1008.60
2022-10-22T06:11:00.259Z,1008.63
2022-10-22T06:11:58.611Z,1008.64
2022-10-22T06:12:59.375Z,1008.60
2022-10-22T06:14:18.663Z,1008.61
2022-10-22T06:14:59.923Z,1008.59
2022-10-22T06:15:59.012Z,1008.63
2022-10-22T06:16:59.217Z,1008.62
2022-10-22T06:17:59.832Z,1008.64
2022-10-22T06:19:00.113Z,1008.64
2022-10-22T06:19:59.946Z,1008.66
2022-10-22T06:20:59.675Z,1008.68
2022-10-22T06:22:00.081Z,1008.66
2022-10-22T06:22:59.315Z,1008.73
2022-10-22T06:24:18.658Z,1008.78
2022-10-22T06:24:59.174Z,1008.75
2022-10-22T06:25:59.470Z,1008.78
2022-10-22T06:26:58.327Z,1008.80
2022-10-22T06:27:58.676Z,1008.78
2022-10-22T06:28:58.409Z,1008.87
2022-10-22T06:29:58.222Z,1008.80
2022-10-22T06:30:58.481Z,1008.81
2022-10-22T06:31:58.273Z,1008.83
2022-10-22T06:32:58.514Z,1008.83
2022-10-22T06:34:18.298Z,1008.85
2022-10-22T06:34:58.565Z,1008.85
2022-10-22T06:35:58.279Z,1008.86
2022-10-22T06:36:58.005Z,1008.87
2022-10-22T06:37:58.260Z,1008.84
2022-10-22T06:38:57.992Z,1008.87
2022-10-22T06:39:58.267Z,1008.89
2022-10-22T06:40:58.002Z,1008.91
2022-10-22T06:41:58.251Z,1008.96
2022-10-22T06:42:57.979Z,1009.00
2022-10-22T06:44:18.329Z,1008.96
2022-10-22T06:44:58.117Z,1008.98
2022-10-22T06:45:59.044Z,1009.02
2022-10-22T06:46:58.290Z,1008.96
2022-10-22T06:47:58.314Z,1009.02
2022-10-22T06:48:58.050Z,1009.04
2022-10-22T06:49:58.293Z,1009.02
2022-10-22T06:50:58.042Z,1009.08
2022-10-22T06:51:58.284Z,1009.14
2022-10-22T06:52:58.033Z,1009.15
2022-10-22T06:54:19.770Z,1009.13
2022-10-22T06:54:58.287Z,1009.09
2022-10-22T06:55:58.076Z,1009.14
2022-10-22T06:56:57.807Z,1009.16
2022-10-22T06:57:58.057Z,1009.20
2022-10-22T06:58:57.793Z,1009.26
2022-10-22T06:59:58.093Z,1009.20
2022-10-22T07:00:57.887Z,1009.25
2022-10-22T07:01:58.577Z,1009.23
2022-10-22T07:03:07.189Z,1009.28
2022-10-22T07:04:19.594Z,1009.32
2022-10-22T07:04:57.889Z,1009.31
2022-10-22T07:05:58.481Z,1009.28
2022-10-22T07:06:58.160Z,1009.26
2022-10-22T07:07:57.972Z,1009.28
2022-10-22T07:08:58.382Z,1009.35
2022-10-22T07:09:57.969Z,1009.31
2022-10-22T07:10:57.701Z,1009.34
2022-10-22T07:11:58.010Z,1009.37
2022-10-22T07:12:58.043Z,1009.38
2022-10-22T07:14:18.584Z,1009.33
2022-10-22T07:14:59.577Z,1009.37
2022-10-22T07:15:59.423Z,1009.35
2022-10-22T07:16:59.436Z,1009.42
2022-10-22T07:17:59.243Z,1009.36
2022-10-22T07:18:59.520Z,1009.35
2022-10-22T07:19:58.572Z,1009.39
2022-10-22T07:20:59.201Z,1009.46
2022-10-22T07:21:59.522Z,1009.43
2022-10-22T07:22:59.347Z,1009.46
2022-10-22T07:24:17.657Z,1009.48
2022-10-22T07:24:59.977Z,1009.45
2022-10-22T07:25:58.579Z,1009.48
2022-10-22T07:26:59.065Z,1009.51
2022-10-22T07:27:59.430Z,1009.53
2022-10-22T07:28:59.211Z,1009.60
2022-10-22T07:29:59.049Z,1009.56
2022-10-22T07:30:59.354Z,1009.59
2022-10-22T07:31:58.685Z,1009.60
2022-10-22T07:32:59.029Z,1009.60
2022-10-22T07:34:17.855Z,1009.69
2022-10-22T07:34:59.111Z,1009.69
2022-10-22T07:35:58.921Z,1009.70
2022-10-22T07:36:59.256Z,1009.72
2022-10-22T07:37:58.549Z,1009.70
2022-10-22T07:38:58.915Z,1009.78
2022-10-22T07:40:02.899Z,1009.79
2022-10-22T07:40:59.987Z,1009.78
2022-10-22T07:41:59.280Z,1009.81
2022-10-22T07:42:59.113Z,1009.80
2022-10-22T07:44:17.439Z,1009.87
2022-10-22T07:44:59.180Z,1009.83
2022-10-22T07:45:58.953Z,1009.87
2022-10-22T07:46:59.256Z,1009.91
2022-10-22T07:47:59.046Z,1009.90
2022-10-22T07:48:59.391Z,1009.88
2022-10-22T07:49:58.084Z,1009.90
2022-10-22T07:50:58.585Z,1009.90
2022-10-22T07:51:58.913Z,1009.93
2022-10-22T07:52:59.215Z,1009.93
2022-10-22T07:54:16.792Z,1009.93
2022-10-22T07:54:58.097Z,1009.94
2022-10-22T07:55:58.842Z,1009.95
2022-10-22T07:56:58.604Z,1009.98
2022-10-22T07:57:58.936Z,1009.99
2022-10-22T07:58:58.803Z,1010.04
2022-10-22T07:59:59.981Z,1009.98
2022-10-22T08:00:58.123Z,1009.98
2022-10-22T08:01:58.673Z,1010.01
2022-10-22T08:02:58.994Z,1010.02
2022-10-22T08:04:17.283Z,1010.06
2022-10-22T08:04:59.085Z,1010.04
2022-10-22T08:05:58.115Z,1010.07
2022-10-22T08:06:58.096Z,1010.09
2022-10-22T08:07:59.085Z,1010.06
2022-10-22T08:08:58.854Z,1010.09
2022-10-22T08:09:58.605Z,1010.03
2022-10-22T08:10:58.962Z,1010.13
2022-10-22T08:11:58.853Z,1010.17
2022-10-22T08:12:58.117Z,1010.14
2022-10-22T08:14:18.970Z,1010.19
2022-10-22T08:14:58.836Z,1010.16
2022-10-22T08:15:58.598Z,1010.16
2022-10-22T08:16:58.923Z,1010.22
2022-10-22T08:17:58.191Z,1010.12
2022-10-22T08:18:58.100Z,1010.25
2022-10-22T08:19:58.790Z,1010.21
2022-10-22T08:20:58.585Z,1010.12
2022-10-22T08:21:58.895Z,1010.20
2022-10-22T08:22:58.805Z,1010.15
2022-10-22T08:24:17.063Z,1010.16
2022-10-22T08:24:58.801Z,1010.17
2022-10-22T08:25:58.664Z,1010.18
2022-10-22T08:26:58.508Z,1010.27
2022-10-22T08:27:58.836Z,1010.22
2022-10-22T08:28:58.142Z,1010.19
2022-10-22T08:29:57.612Z,1010.29
2022-10-22T08:30:58.052Z,1010.26
2022-10-22T08:31:57.922Z,1010.26
2022-10-22T08:32:58.243Z,1010.29
2022-10-22T08:34:18.500Z,1010.32
2022-10-22T08:34:57.814Z,1010.34
2022-10-22T08:35:57.631Z,1010.31
2022-10-22T08:36:58.384Z,1010.26
2022-10-22T08:37:58.703Z,1010.27
2022-10-22T08:38:58.554Z,1010.30
2022-10-22T08:39:58.338Z,1010.28
2022-10-22T08:40:58.631Z,1010.37
2022-10-22T08:41:58.444Z,1010.35
2022-10-22T08:42:58.288Z,1010.32
2022-10-22T08:44:17.099Z,1010.40
2022-10-22T08:44:58.384Z,1010.44
2022-10-22T08:45:57.416Z,1010.46
2022-10-22T08:46:58.516Z,1010.46
2022-10-22T08:47:57.616Z,1010.47
2022-10-22T08:48:58.682Z,1010.47
2022-10-22T08:49:58.420Z,1010.53
2022-10-22T08:50:58.220Z,1010.54
2022-10-22T08:51:58.558Z,1010.49
2022-10-22T08:52:58.358Z,1010.50
2022-10-22T08:54:17.171Z,1010.59
2022-10-22T08:54:58.391Z,1010.55
2022-10-22T08:55:58.184Z,1010.55
2022-10-22T08:56:58.001Z,1010.53
2022-10-22T08:57:58.277Z,1010.66
2022-10-22T08:58:58.125Z,1010.57
2022-10-22T08:59:57.631Z,1010.55
2022-10-22T09:00:58.265Z,1010.59
2022-10-22T09:01:58.036Z,1010.54
2022-10-22T09:02:58.807Z,1010.61
2022-10-22T09:04:16.627Z,1010.62
2022-10-22T09:04:58.353Z,1010.66
2022-10-22T09:05:58.169Z,1010.65
2022-10-22T09:06:58.513Z,1010.70
2022-10-22T09:07:58.361Z,1010.68
2022-10-22T09:08:58.187Z,1010.73
2022-10-22T09:09:57.985Z,1010.72
2022-10-22T09:10:57.967Z,1010.73
2022-10-22T09:11:57.633Z,1010.75
2022-10-22T09:12:58.053Z,1010.74
2022-10-22T09:14:16.881Z,1010.81
2022-10-22T09:14:58.167Z,1010.81
2022-10-22T09:15:57.990Z,1010.84
2022-10-22T09:16:58.887Z,1010.82
2022-10-22T09:17:57.130Z,1010.88
2022-10-22T09:18:57.966Z,1010.89
2022-10-22T09:19:58.271Z,1010.90
2022-10-22T09:20:58.068Z,1010.92
2022-10-22T09:21:57.965Z,1010.94
2022-10-22T09:22:58.289Z,1010.96
2022-10-22T09:24:16.613Z,1010.97
2022-10-22T09:24:58.354Z,1010.98
2022-10-22T09:25:57.370Z,1010.97
2022-10-22T09:26:57.933Z,1011.03
2022-10-22T09:27:58.282Z,1010.94
2022-10-22T09:28:58.054Z,1010.96
2022-10-22T09:29:57.846Z,1011.01
2022-10-22T09:31:57.996Z,1011.04
2022-10-22T09:32:57.792Z,1010.95
2022-10-22T09:34:16.666Z,1011.06
2022-10-22T09:34:57.868Z,1011.03
2022-10-22T09:35:57.664Z,1010.99
2022-10-22T09:36:57.475Z,1011.06
2022-10-22T09:37:57.759Z,1011.00
2022-10-22T09:38:57.584Z,1011.03
2022-10-22T09:39:57.865Z,1011.00
2022-10-22T09:40:57.162Z,1011.04
2022-10-22T09:41:57.540Z,1011.07
2022-10-22T09:42:57.834Z,1011.09
2022-10-22T09:44:16.197Z,1011.04
2022-10-22T09:44:57.888Z,1011.16
2022-10-22T09:45:57.147Z,1011.16
2022-10-22T09:46:57.154Z,1011.14
2022-10-22T09:48:01.954Z,1011.20
2022-10-22T09:48:57.895Z,1011.17
2022-10-22T09:49:56.209Z,1011.19
2022-10-22T09:50:57.903Z,1011.23
2022-10-22T09:51:57.749Z,1011.21
2022-10-22T09:52:57.546Z,1011.19
2022-10-22T09:54:16.370Z,1011.26
2022-10-22T09:54:57.567Z,1011.27
2022-10-22T09:55:57.879Z,1011.29
2022-10-22T09:56:57.695Z,1011.32
2022-10-22T09:57:56.665Z,1011.28
2022-10-22T09:58:57.825Z,1011.28
2022-10-22T09:59:57.605Z,1011.26
2022-10-22T10:00:57.435Z,1011.29
2022-10-22T10:02:04.970Z,1011.30
2022-10-22T10:02:58.045Z,1011.29
2022-10-22T10:04:16.379Z,1011.31
2022-10-22T10:04:56.775Z,1011.32
2022-10-22T10:06:00.184Z,1011.36
2022-10-22T10:06:58.157Z,1011.38
2022-10-22T10:07:57.448Z,1011.46
2022-10-22T10:08:56.695Z,1011.47
2022-10-22T10:09:57.100Z,1011.52
2022-10-22T10:10:57.374Z,1011.48
2022-10-22T10:11:57.680Z,1011.47
2022-10-22T10:12:57.520Z,1011.53
2022-10-22T10:14:16.334Z,1011.50
2022-10-22T10:14:57.557Z,1011.47
2022-10-22T10:15:57.351Z,1011.54
2022-10-22T10:16:57.665Z,1011.50
2022-10-22T10:17:57.472Z,1011.53
2022-10-22T10:18:57.298Z,1011.52
2022-10-22T10:20:00.060Z,1011.56
2022-10-22T10:20:56.966Z,1011.59
2022-10-22T10:21:55.712Z,1011.57
2022-10-22T10:22:55.953Z,1011.62
2022-10-22T10:24:17.247Z,1011.64
2022-10-22T10:24:57.223Z,1011.67
2022-10-22T10:25:55.947Z,1011.68
2022-10-22T10:26:57.400Z,1011.77
2022-10-22T10:27:55.705Z,1011.74
2022-10-22T10:28:55.920Z,1011.77
2022-10-22T10:29:55.690Z,1011.82
2022-10-22T10:30:55.929Z,1011.79
2022-10-22T10:31:55.694Z,1011.72
2022-10-22T10:32:55.965Z,1011.73
2022-10-22T10:34:16.110Z,1011.75
2022-10-22T10:34:55.871Z,1011.79
2022-10-22T10:35:55.636Z,1011.76
2022-10-22T10:36:55.875Z,1011.74
2022-10-22T10:37:55.653Z,1011.79
2022-10-22T10:38:55.915Z,1011.81
2022-10-22T10:39:55.678Z,1011.88
2022-10-22T10:40:55.941Z,1011.89
2022-10-22T10:41:55.701Z,1011.88
2022-10-22T10:42:55.949Z,1011.91
2022-10-22T10:44:15.784Z,1011.91
2022-10-22T10:44:56.056Z,1011.94
2022-10-22T10:45:56.031Z,1011.91
2022-10-22T10:46:56.917Z,1011.94
2022-10-22T10:47:55.822Z,1011.96
2022-10-22T10:48:55.568Z,1011.92
2022-10-22T10:49:55.837Z,1011.94
2022-10-22T10:50:55.595Z,1011.95
2022-10-22T10:51:55.861Z,1011.91
2022-10-22T10:52:55.759Z,1011.89
2022-10-22T10:54:15.577Z,1011.91
2022-10-22T10:54:55.825Z,1011.86
2022-10-22T10:55:55.601Z,1011.91
2022-10-22T10:56:55.845Z,1011.86
2022-10-22T10:57:55.628Z,1011.84
2022-10-22T10:58:55.386Z,1011.82
2022-10-22T10:59:55.653Z,1011.89
2022-10-22T11:00:55.392Z,1011.86
2022-10-22T11:01:55.745Z,1011.86
2022-10-22T11:04:15.681Z,1011.81
2022-10-22T11:04:55.720Z,1011.82
2022-10-22T11:05:56.915Z,1011.90
2022-10-22T11:07:10.632Z,1011.88
2022-10-22T11:07:56.452Z,1011.92
2022-10-22T11:09:01.500Z,1012.04
2022-10-22T11:09:55.264Z,1011.85
2022-10-22T11:10:55.524Z,1011.88
2022-10-22T11:11:55.278Z,1011.81
2022-10-22T11:12:56.228Z,1011.80
2022-10-22T11:14:32.748Z,1011.94
2022-10-22T11:15:00.398Z,1011.95
2022-10-22T11:16:07.661Z,1011.86
2022-10-22T11:16:55.545Z,1011.69
2022-10-22T11:18:24.806Z,1011.90
2022-10-22T11:18:55.532Z,1011.70
2022-10-22T11:19:59.948Z,1011.84
2022-10-22T11:20:57.027Z,1011.75
2022-10-22T11:21:55.954Z,1011.64
2022-10-22T11:23:18.228Z,1011.82
2022-10-22T11:24:16.382Z,1011.74
2022-10-22T11:24:55.116Z,1011.70
2022-10-22T11:25:55.357Z,1011.72
2022-10-22T11:26:55.116Z,1011.66
2022-10-22T11:28:03.275Z,1011.73
2022-10-22T11:28:56.121Z,1011.65
2022-10-22T11:29:55.392Z,1011.59
2022-10-22T11:30:55.139Z,1011.64
2022-10-22T11:31:55.456Z,1011.58
2022-10-22T11:32:55.218Z,1011.60
2022-10-22T11:34:47.983Z,1011.80
2022-10-22T11:35:36.758Z,1011.82
2022-10-22T11:35:54.762Z,1011.54
2022-10-22T11:36:55.019Z,1011.62
2022-10-22T11:37:55.299Z,1011.55
2022-10-22T11:38:55.024Z,1011.54
2022-10-22T11:39:56.713Z,1011.65
2022-10-22T11:40:55.723Z,1011.60
2022-10-22T11:41:55.308Z,1011.60
2022-10-22T11:42:55.079Z,1011.54
2022-10-22T11:44:15.391Z,1011.58
2022-10-22T11:44:54.354Z,1011.58
2022-10-22T11:45:55.107Z,1011.60
2022-10-22T11:46:55.380Z,1011.60
2022-10-22T11:47:55.123Z,1011.60
2022-10-22T11:48:54.875Z,1011.55
2022-10-22T11:49:55.186Z,1011.59
2022-10-22T11:51:34.934Z,1011.71
2022-10-22T11:51:55.255Z,1011.64
2022-10-22T11:52:55.024Z,1011.56
2022-10-22T11:54:15.288Z,1011.51
2022-10-22T11:54:55.043Z,1011.50
2022-10-22T11:55:54.786Z,1011.50
2022-10-22T11:56:55.029Z,1011.46
2022-10-22T11:57:54.783Z,1011.51
2022-10-22T11:58:55.124Z,1011.48
2022-10-22T11:59:54.819Z,1011.50
2022-10-22T12:00:56.523Z,1011.50
2022-10-22T12:01:56.353Z,1011.50
2022-10-22T12:02:55.100Z,1011.47
2022-10-22T12:04:15.850Z,1011.50
2022-10-22T12:04:55.213Z,1011.48
2022-10-22T12:05:54.914Z,1011.55
2022-10-22T12:06:54.681Z,1011.53
2022-10-22T12:07:54.919Z,1011.52
2022-10-22T12:08:54.929Z,1011.54